Aérodrome :
LOGIN :

S'inscrire | Disclaimer

   EN    FR    IT 

 










Légende :    VFR   VFR Marginal   IFR   IFR Intensif   IFR Très Intensif
Visi : 
Plafond : 
>= 8 km
>= 3000ft
5 à 8 km
1000 à 3000 ft
1500m à 5 km
500 à 1000 ft
800 à 1500m
200 à 500 ft
< 800m
< 200 ft
Symboles :   Orages  Brouillard  Fortes neiges  Fortes précipitations  Vent > 20 kt
SIGMETs :   Divers  Orages  Givrage  Turbulence  Onde Orograph.  Cendres Volcan.






- Altitude de l'aérodrome : 327 ft
- Code IATA : BHX


EGBB - Birmingham

DERNIER METAR :
  • 111250Z VRB03KT 9000 NSC 27/18 Q1015

METARs EXPIRÉS :
  • 111220Z 13004KT 050V210 9000 NSC 26/18 Q1016
  • 111150Z VRB03KT 9000 NSC 25/18 Q1016
  • 111120Z 09004KT 020V150 8000 NSC 24/18 Q1016
  • 111050Z VRB03KT 7000 NSC 23/18 Q1016
  • 111020Z 09004KT 040V140 6000 SCT009 22/18 Q1016

TAF TAF EGBB
Valide du 11 à 12h jusqu'au 12 à 12h UTC


111103Z 1112/1212 04008KT 8000 FEW040
BECMG 1112/1115 9999 NSW
PROB30
TEMPO 1112/1121 17020G35KT 2000 +TSGR
PROB30
TEMPO 1121/1209 7000
ATIS : +44 121 780 0910



MET'MAP, la Météo Aéronautique d'un coup d'oeil ! - Copyright ORBIFLY Décembre 2007 - Disclaimer

ORBIFLY MET'MAP TEAM :

Programmation & Développement : Alexandra Zaïnal
Sur une idée originale de : Baudouin d'Aumeries
Assistance à la programmation : Marc-Olivier Méhu
Soutien technique & logistique : Manuel Goepfert

Contact : metmap@orbifly.com




SOURCES & CREDITS :

   NOAA